sensor_id;sensor_type;location;lat;lon;timestamp;P1;durP1;ratioP1;P2;durP2;ratioP2
72611;SDS011;60655;52.182;4.474;2023-05-28T00:01:00;23.52;;;7.10;;
72611;SDS011;60655;52.182;4.474;2023-05-28T00:03:03;23.75;;;6.30;;
72611;SDS011;60655;52.182;4.474;2023-05-28T00:05:05;25.05;;;6.90;;
72611;SDS011;60655;52.182;4.474;2023-05-28T00:07:06;21.75;;;6.18;;
72611;SDS011;60655;52.182;4.474;2023-05-28T00:09:07;22.25;;;6.50;;
72611;SDS011;60655;52.182;4.474;2023-05-28T00:11:09;17.92;;;5.82;;
72611;SDS011;60655;52.182;4.474;2023-05-28T00:13:10;19.70;;;6.70;;
72611;SDS011;60655;52.182;4.474;2023-05-28T00:15:11;19.33;;;5.80;;
72611;SDS011;60655;52.182;4.474;2023-05-28T00:17:12;21.88;;;7.00;;
72611;SDS011;60655;52.182;4.474;2023-05-28T00:19:13;21.92;;;6.40;;
72611;SDS011;60655;52.182;4.474;2023-05-28T00:21:15;20.48;;;6.20;;
72611;SDS011;60655;52.182;4.474;2023-05-28T00:23:16;17.30;;;5.80;;
72611;SDS011;60655;52.182;4.474;2023-05-28T00:25:17;22.38;;;7.05;;
72611;SDS011;60655;52.182;4.474;2023-05-28T00:27:18;25.48;;;6.13;;
72611;SDS011;60655;52.182;4.474;2023-05-28T00:29:19;25.52;;;6.50;;
72611;SDS011;60655;52.182;4.474;2023-05-28T00:31:20;20.92;;;7.10;;
72611;SDS011;60655;52.182;4.474;2023-05-28T00:33:21;17.20;;;5.43;;
72611;SDS011;60655;52.182;4.474;2023-05-28T00:35:22;21.80;;;7.70;;
72611;SDS011;60655;52.182;4.474;2023-05-28T00:37:23;17.50;;;5.85;;
72611;SDS011;60655;52.182;4.474;2023-05-28T00:39:24;22.17;;;7.38;;
72611;SDS011;60655;52.182;4.474;2023-05-28T00:41:25;24.30;;;6.10;;
72611;SDS011;60655;52.182;4.474;2023-05-28T00:43:26;21.23;;;6.63;;
72611;SDS011;60655;52.182;4.474;2023-05-28T00:45:27;18.40;;;5.93;;
72611;SDS011;60655;52.182;4.474;2023-05-28T00:47:28;20.60;;;6.72;;
72611;SDS011;60655;52.182;4.474;2023-05-28T00:49:30;28.90;;;6.95;;
72611;SDS011;60655;52.182;4.474;2023-05-28T00:51:33;21.08;;;7.03;;
72611;SDS011;60655;52.182;4.474;2023-05-28T00:53:35;23.33;;;6.78;;
72611;SDS011;60655;52.182;4.474;2023-05-28T00:55:36;26.02;;;6.70;;
72611;SDS011;60655;52.182;4.474;2023-05-28T00:57:37;22.25;;;7.05;;
72611;SDS011;60655;52.182;4.474;2023-05-28T00:59:38;21.92;;;6.57;;
72611;SDS011;60655;52.182;4.474;2023-05-28T01:01:39;26.35;;;7.53;;
72611;SDS011;60655;52.182;4.474;2023-05-28T01:03:41;23.15;;;6.78;;
72611;SDS011;60655;52.182;4.474;2023-05-28T01:05:42;26.08;;;8.02;;
72611;SDS011;60655;52.182;4.474;2023-05-28T01:07:44;23.33;;;7.07;;
72611;SDS011;60655;52.182;4.474;2023-05-28T01:09:45;23.77;;;8.23;;
72611;SDS011;60655;52.182;4.474;2023-05-28T01:11:46;26.67;;;7.57;;
72611;SDS011;60655;52.182;4.474;2023-05-28T01:13:50;20.85;;;7.03;;
72611;SDS011;60655;52.182;4.474;2023-05-28T01:15:51;20.13;;;8.07;;
72611;SDS011;60655;52.182;4.474;2023-05-28T01:17:56;24.08;;;6.90;;
72611;SDS011;60655;52.182;4.474;2023-05-28T01:19:58;23.77;;;6.82;;
72611;SDS011;60655;52.182;4.474;2023-05-28T01:22:11;22.42;;;7.45;;
72611;SDS011;60655;52.182;4.474;2023-05-28T01:24:16;23.55;;;6.47;;
72611;SDS011;60655;52.182;4.474;2023-05-28T01:26:17;21.63;;;6.80;;
72611;SDS011;60655;52.182;4.474;2023-05-28T01:28:19;21.60;;;6.82;;
72611;SDS011;60655;52.182;4.474;2023-05-28T01:30:21;21.77;;;7.15;;
72611;SDS011;60655;52.182;4.474;2023-05-28T01:32:22;19.48;;;7.03;;
72611;SDS011;60655;52.182;4.474;2023-05-28T01:34:23;25.42;;;7.53;;
72611;SDS011;60655;52.182;4.474;2023-05-28T01:36:27;22.83;;;7.65;;
72611;SDS011;60655;52.182;4.474;2023-05-28T01:38:31;20.77;;;7.25;;
72611;SDS011;60655;52.182;4.474;2023-05-28T01:40:34;18.10;;;6.20;;
72611;SDS011;60655;52.182;4.474;2023-05-28T01:42:36;27.98;;;8.43;;
72611;SDS011;60655;52.182;4.474;2023-05-28T01:44:38;22.00;;;6.82;;
72611;SDS011;60655;52.182;4.474;2023-05-28T01:46:42;23.77;;;7.43;;
72611;SDS011;60655;52.182;4.474;2023-05-28T01:48:45;20.35;;;7.05;;
72611;SDS011;60655;52.182;4.474;2023-05-28T01:50:46;22.80;;;7.85;;
72611;SDS011;60655;52.182;4.474;2023-05-28T01:52:47;21.10;;;7.05;;
72611;SDS011;60655;52.182;4.474;2023-05-28T01:54:50;18.45;;;6.47;;
72611;SDS011;60655;52.182;4.474;2023-05-28T01:56:51;19.42;;;7.22;;
72611;SDS011;60655;52.182;4.474;2023-05-28T01:58:51;29.25;;;8.27;;
72611;SDS011;60655;52.182;4.474;2023-05-28T02:03:12;23.23;;;7.53;;
72611;SDS011;60655;52.182;4.474;2023-05-28T02:05:13;24.48;;;7.75;;
72611;SDS011;60655;52.182;4.474;2023-05-28T02:07:14;22.92;;;7.38;;
72611;SDS011;60655;52.182;4.474;2023-05-28T02:09:14;23.52;;;7.65;;
72611;SDS011;60655;52.182;4.474;2023-05-28T02:11:16;26.50;;;7.55;;
72611;SDS011;60655;52.182;4.474;2023-05-28T02:13:17;27.15;;;8.10;;
72611;SDS011;60655;52.182;4.474;2023-05-28T02:15:19;26.17;;;8.63;;
72611;SDS011;60655;52.182;4.474;2023-05-28T02:17:22;26.95;;;7.47;;
72611;SDS011;60655;52.182;4.474;2023-05-28T02:19:23;20.55;;;7.50;;
72611;SDS011;60655;52.182;4.474;2023-05-28T02:21:25;21.05;;;6.75;;
72611;SDS011;60655;52.182;4.474;2023-05-28T02:23:26;22.80;;;7.75;;
72611;SDS011;60655;52.182;4.474;2023-05-28T02:25:27;18.85;;;6.93;;
72611;SDS011;60655;52.182;4.474;2023-05-28T02:27:28;23.20;;;6.53;;
72611;SDS011;60655;52.182;4.474;2023-05-28T02:29:29;22.45;;;8.05;;
72611;SDS011;60655;52.182;4.474;2023-05-28T02:31:30;23.00;;;6.32;;
72611;SDS011;60655;52.182;4.474;2023-05-28T02:33:31;20.63;;;6.63;;
72611;SDS011;60655;52.182;4.474;2023-05-28T02:35:33;26.08;;;7.43;;
72611;SDS011;60655;52.182;4.474;2023-05-28T02:37:35;23.70;;;7.45;;
72611;SDS011;60655;52.182;4.474;2023-05-28T02:39:36;22.48;;;6.50;;
72611;SDS011;60655;52.182;4.474;2023-05-28T02:41:37;23.10;;;7.07;;
72611;SDS011;60655;52.182;4.474;2023-05-28T02:43:37;23.73;;;6.95;;
72611;SDS011;60655;52.182;4.474;2023-05-28T02:45:38;19.00;;;6.40;;
72611;SDS011;60655;52.182;4.474;2023-05-28T02:47:39;21.38;;;6.40;;
72611;SDS011;60655;52.182;4.474;2023-05-28T02:49:40;23.00;;;6.85;;
72611;SDS011;60655;52.182;4.474;2023-05-28T02:51:41;23.38;;;7.50;;
72611;SDS011;60655;52.182;4.474;2023-05-28T02:53:42;23.10;;;6.50;;
72611;SDS011;60655;52.182;4.474;2023-05-28T02:55:43;20.55;;;6.88;;
72611;SDS011;60655;52.182;4.474;2023-05-28T02:57:44;19.25;;;6.75;;
72611;SDS011;60655;52.182;4.474;2023-05-28T02:59:46;25.40;;;7.72;;
72611;SDS011;60655;52.182;4.474;2023-05-28T03:01:47;23.70;;;6.40;;
72611;SDS011;60655;52.182;4.474;2023-05-28T03:03:47;23.75;;;6.65;;
72611;SDS011;60655;52.182;4.474;2023-05-28T03:05:48;19.33;;;6.93;;
72611;SDS011;60655;52.182;4.474;2023-05-28T03:07:51;20.42;;;6.25;;
72611;SDS011;60655;52.182;4.474;2023-05-28T03:09:52;19.90;;;6.78;;
72611;SDS011;60655;52.182;4.474;2023-05-28T03:11:53;17.70;;;5.95;;
72611;SDS011;60655;52.182;4.474;2023-05-28T03:13:54;22.20;;;7.03;;
72611;SDS011;60655;52.182;4.474;2023-05-28T03:15:55;19.20;;;6.60;;
72611;SDS011;60655;52.182;4.474;2023-05-28T03:17:56;16.92;;;5.80;;
72611;SDS011;60655;52.182;4.474;2023-05-28T03:19:57;21.50;;;6.55;;
72611;SDS011;60655;52.182;4.474;2023-05-28T03:21:58;16.60;;;6.25;;
72611;SDS011;60655;52.182;4.474;2023-05-28T03:23:59;23.95;;;7.10;;
72611;SDS011;60655;52.182;4.474;2023-05-28T03:26:00;23.35;;;7.07;;
72611;SDS011;60655;52.182;4.474;2023-05-28T03:28:01;24.13;;;7.38;;
72611;SDS011;60655;52.182;4.474;2023-05-28T03:30:02;17.35;;;6.35;;
72611;SDS011;60655;52.182;4.474;2023-05-28T03:32:04;18.23;;;6.40;;
72611;SDS011;60655;52.182;4.474;2023-05-28T03:34:05;17.70;;;6.00;;
72611;SDS011;60655;52.182;4.474;2023-05-28T03:36:06;16.73;;;6.45;;
72611;SDS011;60655;52.182;4.474;2023-05-28T03:38:08;22.80;;;7.30;;
72611;SDS011;60655;52.182;4.474;2023-05-28T03:40:09;22.92;;;7.70;;
72611;SDS011;60655;52.182;4.474;2023-05-28T03:42:10;16.08;;;6.43;;
72611;SDS011;60655;52.182;4.474;2023-05-28T03:44:11;23.23;;;6.90;;
72611;SDS011;60655;52.182;4.474;2023-05-28T03:46:12;17.08;;;5.85;;
72611;SDS011;60655;52.182;4.474;2023-05-28T03:48:13;20.30;;;6.28;;
72611;SDS011;60655;52.182;4.474;2023-05-28T03:50:14;18.27;;;6.88;;
72611;SDS011;60655;52.182;4.474;2023-05-28T03:52:15;19.52;;;6.30;;
72611;SDS011;60655;52.182;4.474;2023-05-28T03:54:16;22.13;;;6.95;;
72611;SDS011;60655;52.182;4.474;2023-05-28T03:56:17;19.17;;;6.90;;
72611;SDS011;60655;52.182;4.474;2023-05-28T03:58:21;24.90;;;6.90;;
72611;SDS011;60655;52.182;4.474;2023-05-28T04:00:22;23.90;;;7.07;;
72611;SDS011;60655;52.182;4.474;2023-05-28T04:02:23;20.13;;;6.90;;
72611;SDS011;60655;52.182;4.474;2023-05-28T04:04:24;19.55;;;6.40;;
72611;SDS011;60655;52.182;4.474;2023-05-28T04:06:25;29.05;;;7.38;;
72611;SDS011;60655;52.182;4.474;2023-05-28T04:08:26;22.67;;;6.63;;
72611;SDS011;60655;52.182;4.474;2023-05-28T04:10:27;26.05;;;7.25;;
72611;SDS011;60655;52.182;4.474;2023-05-28T04:12:28;23.25;;;6.53;;
72611;SDS011;60655;52.182;4.474;2023-05-28T04:14:29;21.98;;;7.07;;
72611;SDS011;60655;52.182;4.474;2023-05-28T04:16:30;27.95;;;7.43;;
72611;SDS011;60655;52.182;4.474;2023-05-28T04:18:32;19.77;;;6.88;;
72611;SDS011;60655;52.182;4.474;2023-05-28T04:20:33;26.50;;;6.85;;
72611;SDS011;60655;52.182;4.474;2023-05-28T04:22:36;17.88;;;6.28;;
72611;SDS011;60655;52.182;4.474;2023-05-28T04:24:37;22.80;;;7.40;;
72611;SDS011;60655;52.182;4.474;2023-05-28T04:26:38;21.67;;;6.47;;
72611;SDS011;60655;52.182;4.474;2023-05-28T04:28:39;19.40;;;5.85;;
72611;SDS011;60655;52.182;4.474;2023-05-28T04:30:41;17.55;;;6.10;;
72611;SDS011;60655;52.182;4.474;2023-05-28T04:32:42;21.63;;;7.03;;
72611;SDS011;60655;52.182;4.474;2023-05-28T04:34:43;19.13;;;6.97;;
72611;SDS011;60655;52.182;4.474;2023-05-28T04:36:44;21.23;;;7.28;;
72611;SDS011;60655;52.182;4.474;2023-05-28T04:38:45;25.27;;;7.25;;
72611;SDS011;60655;52.182;4.474;2023-05-28T04:40:47;21.10;;;7.20;;
72611;SDS011;60655;52.182;4.474;2023-05-28T04:42:50;23.27;;;7.38;;
72611;SDS011;60655;52.182;4.474;2023-05-28T04:44:54;22.77;;;6.25;;
72611;SDS011;60655;52.182;4.474;2023-05-28T04:46:55;20.52;;;7.00;;
72611;SDS011;60655;52.182;4.474;2023-05-28T04:48:59;15.10;;;5.75;;
72611;SDS011;60655;52.182;4.474;2023-05-28T04:51:00;18.45;;;5.70;;
72611;SDS011;60655;52.182;4.474;2023-05-28T04:53:04;19.70;;;6.38;;
72611;SDS011;60655;52.182;4.474;2023-05-28T04:55:05;20.17;;;6.85;;
72611;SDS011;60655;52.182;4.474;2023-05-28T04:57:06;20.27;;;6.72;;
72611;SDS011;60655;52.182;4.474;2023-05-28T04:59:07;17.92;;;5.97;;
72611;SDS011;60655;52.182;4.474;2023-05-28T05:01:10;21.40;;;6.53;;
72611;SDS011;60655;52.182;4.474;2023-05-28T05:03:11;18.27;;;5.88;;
72611;SDS011;60655;52.182;4.474;2023-05-28T05:05:12;17.17;;;6.13;;
72611;SDS011;60655;52.182;4.474;2023-05-28T05:07:14;23.77;;;7.55;;
72611;SDS011;60655;52.182;4.474;2023-05-28T05:09:15;19.75;;;6.47;;
72611;SDS011;60655;52.182;4.474;2023-05-28T05:11:16;20.05;;;7.25;;
72611;SDS011;60655;52.182;4.474;2023-05-28T05:13:17;18.48;;;7.00;;
72611;SDS011;60655;52.182;4.474;2023-05-28T05:15:18;22.70;;;6.85;;
72611;SDS011;60655;52.182;4.474;2023-05-28T05:17:19;18.80;;;6.60;;
72611;SDS011;60655;52.182;4.474;2023-05-28T05:19:20;18.95;;;6.93;;
72611;SDS011;60655;52.182;4.474;2023-05-28T05:21:21;23.98;;;7.50;;
72611;SDS011;60655;52.182;4.474;2023-05-28T05:23:22;19.88;;;6.43;;
72611;SDS011;60655;52.182;4.474;2023-05-28T05:25:23;18.73;;;6.65;;
72611;SDS011;60655;52.182;4.474;2023-05-28T05:27:24;20.60;;;6.88;;
72611;SDS011;60655;52.182;4.474;2023-05-28T05:29:25;23.73;;;6.82;;
72611;SDS011;60655;52.182;4.474;2023-05-28T05:31:26;18.15;;;7.63;;
72611;SDS011;60655;52.182;4.474;2023-05-28T05:33:27;19.13;;;6.63;;
72611;SDS011;60655;52.182;4.474;2023-05-28T05:35:28;23.23;;;6.63;;
72611;SDS011;60655;52.182;4.474;2023-05-28T05:37:29;17.00;;;6.35;;
72611;SDS011;60655;52.182;4.474;2023-05-28T05:39:30;22.80;;;7.13;;
72611;SDS011;60655;52.182;4.474;2023-05-28T05:41:31;23.58;;;7.13;;
72611;SDS011;60655;52.182;4.474;2023-05-28T05:43:32;25.17;;;7.57;;
72611;SDS011;60655;52.182;4.474;2023-05-28T05:45:33;19.13;;;6.60;;
72611;SDS011;60655;52.182;4.474;2023-05-28T05:47:34;22.40;;;7.88;;
72611;SDS011;60655;52.182;4.474;2023-05-28T05:49:35;19.40;;;6.63;;
72611;SDS011;60655;52.182;4.474;2023-05-28T05:51:36;18.80;;;7.88;;
72611;SDS011;60655;52.182;4.474;2023-05-28T05:53:40;19.50;;;7.78;;
72611;SDS011;60655;52.182;4.474;2023-05-28T05:55:42;21.33;;;7.30;;
72611;SDS011;60655;52.182;4.474;2023-05-28T05:57:43;19.98;;;6.88;;
72611;SDS011;60655;52.182;4.474;2023-05-28T05:59:46;21.23;;;7.68;;
72611;SDS011;60655;52.182;4.474;2023-05-28T06:01:47;25.90;;;7.55;;
72611;SDS011;60655;52.182;4.474;2023-05-28T06:03:48;23.55;;;6.63;;
72611;SDS011;60655;52.182;4.474;2023-05-28T06:05:49;23.92;;;6.95;;
72611;SDS011;60655;52.182;4.474;2023-05-28T06:07:51;21.58;;;7.00;;
72611;SDS011;60655;52.182;4.474;2023-05-28T06:09:52;18.92;;;5.78;;
72611;SDS011;60655;52.182;4.474;2023-05-28T06:11:52;19.10;;;6.97;;
72611;SDS011;60655;52.182;4.474;2023-05-28T06:13:53;23.33;;;6.63;;
72611;SDS011;60655;52.182;4.474;2023-05-28T06:15:54;20.35;;;6.60;;
72611;SDS011;60655;52.182;4.474;2023-05-28T06:17:56;23.23;;;6.70;;
72611;SDS011;60655;52.182;4.474;2023-05-28T06:19:58;20.40;;;6.78;;
72611;SDS011;60655;52.182;4.474;2023-05-28T06:22:00;19.15;;;6.90;;
72611;SDS011;60655;52.182;4.474;2023-05-28T06:24:01;17.40;;;6.82;;
72611;SDS011;60655;52.182;4.474;2023-05-28T06:26:02;24.27;;;8.57;;
72611;SDS011;60655;52.182;4.474;2023-05-28T06:28:04;19.60;;;6.80;;
72611;SDS011;60655;52.182;4.474;2023-05-28T06:30:05;18.05;;;6.88;;
72611;SDS011;60655;52.182;4.474;2023-05-28T06:32:06;18.92;;;5.93;;
72611;SDS011;60655;52.182;4.474;2023-05-28T06:34:07;18.60;;;6.43;;
72611;SDS011;60655;52.182;4.474;2023-05-28T06:36:09;21.23;;;6.47;;
72611;SDS011;60655;52.182;4.474;2023-05-28T06:38:10;24.80;;;6.45;;
72611;SDS011;60655;52.182;4.474;2023-05-28T06:40:11;15.57;;;5.90;;
72611;SDS011;60655;52.182;4.474;2023-05-28T06:42:12;15.50;;;5.80;;
72611;SDS011;60655;52.182;4.474;2023-05-28T06:44:13;20.15;;;6.20;;
72611;SDS011;60655;52.182;4.474;2023-05-28T06:46:14;20.08;;;6.55;;
72611;SDS011;60655;52.182;4.474;2023-05-28T06:48:15;15.02;;;6.05;;
72611;SDS011;60655;52.182;4.474;2023-05-28T06:50:16;21.33;;;5.57;;
72611;SDS011;60655;52.182;4.474;2023-05-28T06:52:17;18.58;;;6.25;;
72611;SDS011;60655;52.182;4.474;2023-05-28T06:54:19;21.73;;;6.28;;
72611;SDS011;60655;52.182;4.474;2023-05-28T06:56:20;19.38;;;5.50;;
72611;SDS011;60655;52.182;4.474;2023-05-28T06:58:22;19.85;;;5.68;;
72611;SDS011;60655;52.182;4.474;2023-05-28T07:00:23;19.92;;;6.05;;
72611;SDS011;60655;52.182;4.474;2023-05-28T07:02:24;21.20;;;5.88;;
72611;SDS011;60655;52.182;4.474;2023-05-28T07:04:26;17.55;;;5.50;;
72611;SDS011;60655;52.182;4.474;2023-05-28T07:06:28;24.15;;;6.00;;
72611;SDS011;60655;52.182;4.474;2023-05-28T07:08:29;13.90;;;4.78;;
72611;SDS011;60655;52.182;4.474;2023-05-28T07:10:30;15.05;;;5.47;;
72611;SDS011;60655;52.182;4.474;2023-05-28T07:12:31;15.32;;;5.65;;
72611;SDS011;60655;52.182;4.474;2023-05-28T07:14:32;15.32;;;5.80;;
72611;SDS011;60655;52.182;4.474;2023-05-28T07:16:33;17.38;;;5.70;;
72611;SDS011;60655;52.182;4.474;2023-05-28T07:18:34;13.85;;;4.85;;
72611;SDS011;60655;52.182;4.474;2023-05-28T07:20:35;16.52;;;5.82;;
72611;SDS011;60655;52.182;4.474;2023-05-28T07:22:36;21.23;;;6.43;;
72611;SDS011;60655;52.182;4.474;2023-05-28T07:24:37;13.90;;;4.65;;
72611;SDS011;60655;52.182;4.474;2023-05-28T07:26:38;19.73;;;5.80;;
72611;SDS011;60655;52.182;4.474;2023-05-28T07:28:39;20.83;;;5.07;;
72611;SDS011;60655;52.182;4.474;2023-05-28T07:30:43;13.07;;;4.30;;
72611;SDS011;60655;52.182;4.474;2023-05-28T07:32:44;14.43;;;4.90;;
72611;SDS011;60655;52.182;4.474;2023-05-28T07:34:45;22.42;;;5.07;;
72611;SDS011;60655;52.182;4.474;2023-05-28T07:36:46;17.00;;;5.30;;
72611;SDS011;60655;52.182;4.474;2023-05-28T07:38:47;15.38;;;5.05;;
72611;SDS011;60655;52.182;4.474;2023-05-28T07:40:49;19.35;;;5.90;;
72611;SDS011;60655;52.182;4.474;2023-05-28T07:42:51;16.42;;;5.22;;
72611;SDS011;60655;52.182;4.474;2023-05-28T07:44:52;18.02;;;4.82;;
72611;SDS011;60655;52.182;4.474;2023-05-28T07:46:53;15.35;;;5.65;;
72611;SDS011;60655;52.182;4.474;2023-05-28T07:48:54;16.33;;;5.30;;
72611;SDS011;60655;52.182;4.474;2023-05-28T07:50:55;17.80;;;5.38;;
72611;SDS011;60655;52.182;4.474;2023-05-28T07:52:55;17.92;;;5.45;;
72611;SDS011;60655;52.182;4.474;2023-05-28T07:54:57;16.38;;;5.28;;
72611;SDS011;60655;52.182;4.474;2023-05-28T07:56:59;16.67;;;4.72;;
72611;SDS011;60655;52.182;4.474;2023-05-28T07:59:00;19.45;;;5.20;;
72611;SDS011;60655;52.182;4.474;2023-05-28T08:01:01;22.17;;;6.13;;
72611;SDS011;60655;52.182;4.474;2023-05-28T08:03:03;19.35;;;6.03;;
72611;SDS011;60655;52.182;4.474;2023-05-28T08:05:04;15.73;;;5.20;;
72611;SDS011;60655;52.182;4.474;2023-05-28T08:07:05;17.35;;;5.50;;
72611;SDS011;60655;52.182;4.474;2023-05-28T08:09:06;16.23;;;5.90;;
72611;SDS011;60655;52.182;4.474;2023-05-28T08:11:07;16.63;;;4.80;;
72611;SDS011;60655;52.182;4.474;2023-05-28T08:13:11;13.93;;;4.50;;
72611;SDS011;60655;52.182;4.474;2023-05-28T08:15:12;16.25;;;5.20;;
72611;SDS011;60655;52.182;4.474;2023-05-28T08:17:13;15.50;;;5.38;;
72611;SDS011;60655;52.182;4.474;2023-05-28T08:19:14;17.65;;;5.07;;
72611;SDS011;60655;52.182;4.474;2023-05-28T08:21:15;18.58;;;5.93;;
72611;SDS011;60655;52.182;4.474;2023-05-28T08:23:16;18.73;;;5.88;;
72611;SDS011;60655;52.182;4.474;2023-05-28T08:25:17;14.27;;;5.18;;
72611;SDS011;60655;52.182;4.474;2023-05-28T08:27:18;17.30;;;5.47;;
72611;SDS011;60655;52.182;4.474;2023-05-28T08:29:19;22.10;;;5.22;;
72611;SDS011;60655;52.182;4.474;2023-05-28T08:31:20;14.18;;;5.45;;
72611;SDS011;60655;52.182;4.474;2023-05-28T08:33:22;16.83;;;5.32;;
72611;SDS011;60655;52.182;4.474;2023-05-28T08:35:24;13.63;;;4.95;;
72611;SDS011;60655;52.182;4.474;2023-05-28T08:37:26;15.88;;;5.65;;
72611;SDS011;60655;52.182;4.474;2023-05-28T08:39:27;16.50;;;4.93;;
72611;SDS011;60655;52.182;4.474;2023-05-28T08:41:28;16.52;;;5.10;;
72611;SDS011;60655;52.182;4.474;2023-05-28T08:43:29;14.55;;;5.20;;
72611;SDS011;60655;52.182;4.474;2023-05-28T08:45:32;18.65;;;5.22;;
72611;SDS011;60655;52.182;4.474;2023-05-28T08:47:34;22.30;;;5.35;;
72611;SDS011;60655;52.182;4.474;2023-05-28T08:49:38;20.05;;;4.97;;
72611;SDS011;60655;52.182;4.474;2023-05-28T08:51:42;14.18;;;4.80;;
72611;SDS011;60655;52.182;4.474;2023-05-28T08:53:46;12.98;;;4.38;;
72611;SDS011;60655;52.182;4.474;2023-05-28T08:55:48;16.92;;;4.78;;
72611;SDS011;60655;52.182;4.474;2023-05-28T08:57:49;14.18;;;5.88;;
72611;SDS011;60655;52.182;4.474;2023-05-28T08:59:51;18.27;;;5.80;;
72611;SDS011;60655;52.182;4.474;2023-05-28T09:01:53;19.10;;;4.95;;
72611;SDS011;60655;52.182;4.474;2023-05-28T09:03:56;16.83;;;5.10;;
72611;SDS011;60655;52.182;4.474;2023-05-28T09:05:57;16.50;;;4.72;;
72611;SDS011;60655;52.182;4.474;2023-05-28T09:07:58;14.25;;;4.63;;
72611;SDS011;60655;52.182;4.474;2023-05-28T09:09:59;19.83;;;5.15;;
72611;SDS011;60655;52.182;4.474;2023-05-28T09:12:03;16.15;;;4.85;;
72611;SDS011;60655;52.182;4.474;2023-05-28T09:14:11;11.90;;;4.88;;
72611;SDS011;60655;52.182;4.474;2023-05-28T09:16:20;16.88;;;4.97;;
72611;SDS011;60655;52.182;4.474;2023-05-28T09:18:22;12.18;;;4.28;;
72611;SDS011;60655;52.182;4.474;2023-05-28T09:20:24;15.13;;;4.63;;
72611;SDS011;60655;52.182;4.474;2023-05-28T09:22:28;16.15;;;4.40;;
72611;SDS011;60655;52.182;4.474;2023-05-28T09:24:29;14.95;;;4.32;;
72611;SDS011;60655;52.182;4.474;2023-05-28T09:26:34;14.20;;;4.57;;
72611;SDS011;60655;52.182;4.474;2023-05-28T09:28:35;13.25;;;4.03;;
72611;SDS011;60655;52.182;4.474;2023-05-28T09:30:36;16.42;;;4.25;;
72611;SDS011;60655;52.182;4.474;2023-05-28T09:32:37;12.45;;;4.35;;
72611;SDS011;60655;52.182;4.474;2023-05-28T09:34:40;12.05;;;4.55;;
72611;SDS011;60655;52.182;4.474;2023-05-28T09:36:43;12.65;;;3.92;;
72611;SDS011;60655;52.182;4.474;2023-05-28T09:38:44;15.02;;;4.53;;
72611;SDS011;60655;52.182;4.474;2023-05-28T09:40:45;17.63;;;4.93;;
72611;SDS011;60655;52.182;4.474;2023-05-28T09:42:46;17.00;;;5.07;;
72611;SDS011;60655;52.182;4.474;2023-05-28T09:44:52;13.27;;;4.35;;
72611;SDS011;60655;52.182;4.474;2023-05-28T09:46:53;12.45;;;4.35;;
72611;SDS011;60655;52.182;4.474;2023-05-28T09:48:54;16.02;;;4.80;;
72611;SDS011;60655;52.182;4.474;2023-05-28T09:50:55;17.63;;;5.10;;
72611;SDS011;60655;52.182;4.474;2023-05-28T09:52:57;16.10;;;4.68;;
72611;SDS011;60655;52.182;4.474;2023-05-28T09:54:59;15.77;;;5.00;;
72611;SDS011;60655;52.182;4.474;2023-05-28T09:57:04;18.20;;;5.32;;
72611;SDS011;60655;52.182;4.474;2023-05-28T09:59:10;15.07;;;4.68;;
72611;SDS011;60655;52.182;4.474;2023-05-28T10:01:14;13.65;;;4.28;;
72611;SDS011;60655;52.182;4.474;2023-05-28T10:03:19;14.02;;;4.55;;
72611;SDS011;60655;52.182;4.474;2023-05-28T10:05:33;18.90;;;4.70;;
72611;SDS011;60655;52.182;4.474;2023-05-28T10:07:35;17.33;;;4.90;;
72611;SDS011;60655;52.182;4.474;2023-05-28T10:09:38;19.25;;;4.78;;
72611;SDS011;60655;52.182;4.474;2023-05-28T10:11:41;15.35;;;5.07;;
72611;SDS011;60655;52.182;4.474;2023-05-28T10:13:44;17.40;;;4.93;;
72611;SDS011;60655;52.182;4.474;2023-05-28T10:15:47;12.85;;;4.63;;
72611;SDS011;60655;52.182;4.474;2023-05-28T10:17:49;13.88;;;5.28;;
72611;SDS011;60655;52.182;4.474;2023-05-28T10:19:51;13.18;;;5.03;;
72611;SDS011;60655;52.182;4.474;2023-05-28T10:21:52;13.27;;;4.63;;
72611;SDS011;60655;52.182;4.474;2023-05-28T10:23:53;18.00;;;5.13;;
72611;SDS011;60655;52.182;4.474;2023-05-28T10:25:55;13.25;;;4.78;;
72611;SDS011;60655;52.182;4.474;2023-05-28T10:28:00;15.98;;;5.25;;
72611;SDS011;60655;52.182;4.474;2023-05-28T10:30:03;19.92;;;4.90;;
72611;SDS011;60655;52.182;4.474;2023-05-28T10:32:05;15.25;;;4.50;;
72611;SDS011;60655;52.182;4.474;2023-05-28T10:34:14;15.43;;;5.13;;
72611;SDS011;60655;52.182;4.474;2023-05-28T10:36:16;9.98;;;3.83;;
72611;SDS011;60655;52.182;4.474;2023-05-28T10:38:18;15.10;;;4.72;;
72611;SDS011;60655;52.182;4.474;2023-05-28T10:40:22;13.15;;;4.80;;
72611;SDS011;60655;52.182;4.474;2023-05-28T10:42:24;13.23;;;4.07;;
72611;SDS011;60655;52.182;4.474;2023-05-28T10:44:25;12.85;;;4.60;;
72611;SDS011;60655;52.182;4.474;2023-05-28T10:46:46;12.73;;;4.30;;
72611;SDS011;60655;52.182;4.474;2023-05-28T10:51:09;14.18;;;4.70;;
72611;SDS011;60655;52.182;4.474;2023-05-28T10:53:10;15.82;;;4.88;;
72611;SDS011;60655;52.182;4.474;2023-05-28T10:55:12;16.25;;;4.82;;
72611;SDS011;60655;52.182;4.474;2023-05-28T10:57:20;15.60;;;4.72;;
72611;SDS011;60655;52.182;4.474;2023-05-28T10:59:35;15.20;;;4.80;;
72611;SDS011;60655;52.182;4.474;2023-05-28T11:01:43;12.95;;;4.43;;
72611;SDS011;60655;52.182;4.474;2023-05-28T11:04:03;17.05;;;5.03;;
72611;SDS011;60655;52.182;4.474;2023-05-28T11:06:04;13.70;;;4.78;;
72611;SDS011;60655;52.182;4.474;2023-05-28T11:08:06;15.38;;;4.40;;
72611;SDS011;60655;52.182;4.474;2023-05-28T11:10:09;16.35;;;3.85;;
72611;SDS011;60655;52.182;4.474;2023-05-28T11:12:11;13.75;;;4.97;;
72611;SDS011;60655;52.182;4.474;2023-05-28T11:14:14;10.95;;;4.40;;
72611;SDS011;60655;52.182;4.474;2023-05-28T11:16:16;12.18;;;4.40;;
72611;SDS011;60655;52.182;4.474;2023-05-28T11:18:18;15.48;;;4.93;;
72611;SDS011;60655;52.182;4.474;2023-05-28T11:20:24;13.30;;;4.45;;
72611;SDS011;60655;52.182;4.474;2023-05-28T11:22:31;13.40;;;4.28;;
72611;SDS011;60655;52.182;4.474;2023-05-28T11:24:51;13.23;;;4.05;;
72611;SDS011;60655;52.182;4.474;2023-05-28T11:26:56;14.05;;;4.50;;
72611;SDS011;60655;52.182;4.474;2023-05-28T11:28:56;15.88;;;4.72;;
72611;SDS011;60655;52.182;4.474;2023-05-28T11:30:58;12.18;;;4.28;;
72611;SDS011;60655;52.182;4.474;2023-05-28T11:33:01;15.75;;;4.22;;
72611;SDS011;60655;52.182;4.474;2023-05-28T11:35:02;14.13;;;4.47;;
72611;SDS011;60655;52.182;4.474;2023-05-28T11:37:04;15.43;;;4.90;;
72611;SDS011;60655;52.182;4.474;2023-05-28T11:39:07;13.95;;;4.60;;
72611;SDS011;60655;52.182;4.474;2023-05-28T11:41:09;13.02;;;4.78;;
72611;SDS011;60655;52.182;4.474;2023-05-28T11:43:10;15.48;;;4.30;;
72611;SDS011;60655;52.182;4.474;2023-05-28T11:45:11;14.43;;;4.35;;
72611;SDS011;60655;52.182;4.474;2023-05-28T11:47:13;20.33;;;5.13;;
72611;SDS011;60655;52.182;4.474;2023-05-28T11:49:14;13.57;;;4.53;;
72611;SDS011;60655;52.182;4.474;2023-05-28T11:51:15;16.15;;;4.40;;
72611;SDS011;60655;52.182;4.474;2023-05-28T11:53:18;14.70;;;4.20;;
72611;SDS011;60655;52.182;4.474;2023-05-28T11:55:19;12.65;;;4.50;;
72611;SDS011;60655;52.182;4.474;2023-05-28T11:57:26;12.23;;;3.85;;
72611;SDS011;60655;52.182;4.474;2023-05-28T11:59:27;13.30;;;4.85;;
72611;SDS011;60655;52.182;4.474;2023-05-28T12:01:34;13.18;;;3.90;;
72611;SDS011;60655;52.182;4.474;2023-05-28T12:03:35;11.25;;;4.22;;
72611;SDS011;60655;52.182;4.474;2023-05-28T12:05:37;14.93;;;4.93;;
72611;SDS011;60655;52.182;4.474;2023-05-28T12:07:43;16.08;;;4.38;;